sensor_id;sensor_type;location;lat;lon;timestamp;pressure;altitude;pressure_sealevel;temperature;humidity
66430;BME280;53242;51.694;10.006;2023-09-12T00:00:35;99192.53;;;21.93;72.93
66430;BME280;53242;51.694;10.006;2023-09-12T00:02:58;99191.97;;;21.91;72.91
66430;BME280;53242;51.694;10.006;2023-09-12T00:05:21;99198.16;;;21.96;72.58
66430;BME280;53242;51.694;10.006;2023-09-12T00:07:43;99194.66;;;21.91;72.85
66430;BME280;53242;51.694;10.006;2023-09-12T00:10:06;99195.81;;;21.79;73.43
66430;BME280;53242;51.694;10.006;2023-09-12T00:12:28;99192.09;;;21.70;73.84
66430;BME280;53242;51.694;10.006;2023-09-12T00:14:51;99207.41;;;21.70;73.78
66430;BME280;53242;51.694;10.006;2023-09-12T00:17:13;99214.44;;;21.60;74.19
66430;BME280;53242;51.694;10.006;2023-09-12T00:19:36;99210.69;;;21.46;74.87
66430;BME280;53242;51.694;10.006;2023-09-12T00:21:58;99212.56;;;21.40;74.97
66430;BME280;53242;51.694;10.006;2023-09-12T00:24:21;99220.88;;;21.54;74.41
66430;BME280;53242;51.694;10.006;2023-09-12T00:26:43;99212.56;;;21.56;74.15
66430;BME280;53242;51.694;10.006;2023-09-12T00:29:06;99210.69;;;21.46;74.48
66430;BME280;53242;51.694;10.006;2023-09-12T00:31:28;99203.22;;;21.27;75.20
66430;BME280;53242;51.694;10.006;2023-09-12T00:33:51;99197.53;;;21.44;74.86
66430;BME280;53242;51.694;10.006;2023-09-12T00:36:13;99206.94;;;21.42;74.48
66430;BME280;53242;51.694;10.006;2023-09-12T00:38:36;99198.63;;;21.43;74.60
66430;BME280;53242;51.694;10.006;2023-09-12T00:40:58;99202.09;;;21.44;74.38
66430;BME280;53242;51.694;10.006;2023-09-12T00:43:20;99204.56;;;21.19;75.08
66430;BME280;53242;51.694;10.006;2023-09-12T00:45:43;99208.59;;;21.17;75.27
66430;BME280;53242;51.694;10.006;2023-09-12T00:48:05;99214.25;;;21.21;75.11
66430;BME280;53242;51.694;10.006;2023-09-12T00:50:29;99216.66;;;21.12;75.69
66430;BME280;53242;51.694;10.006;2023-09-12T00:52:53;99214.25;;;21.15;75.33
66430;BME280;53242;51.694;10.006;2023-09-12T00:55:17;99209.19;;;21.03;75.63
66430;BME280;53242;51.694;10.006;2023-09-12T00:57:39;99210.53;;;20.96;76.16
66430;BME280;53242;51.694;10.006;2023-09-12T01:00:04;99208.94;;;20.90;76.24
66430;BME280;53242;51.694;10.006;2023-09-12T01:02:34;99203.84;;;20.78;76.63
66430;BME280;53242;51.694;10.006;2023-09-12T01:04:57;99206.25;;;20.84;76.72
66430;BME280;53242;51.694;10.006;2023-09-12T01:07:19;99205.19;;;20.85;76.48
66430;BME280;53242;51.694;10.006;2023-09-12T01:09:42;99204.34;;;20.69;76.91
66430;BME280;53242;51.694;10.006;2023-09-12T01:12:04;99201.91;;;20.52;77.75
66430;BME280;53242;51.694;10.006;2023-09-12T01:14:28;99188.53;;;20.58;77.67
66430;BME280;53242;51.694;10.006;2023-09-12T01:16:50;99179.13;;;20.65;77.39
66430;BME280;53242;51.694;10.006;2023-09-12T01:19:14;99178.59;;;20.63;77.47
66430;BME280;53242;51.694;10.006;2023-09-12T01:27:40;99180.75;;;20.66;77.70
66430;BME280;53242;51.694;10.006;2023-09-12T01:30:05;99179.94;;;20.56;77.46
66430;BME280;53242;51.694;10.006;2023-09-12T01:32:29;99184.50;;;20.55;77.52
66430;BME280;53242;51.694;10.006;2023-09-12T01:34:52;99193.59;;;20.59;77.09
66430;BME280;53242;51.694;10.006;2023-09-12T01:37:14;99192.53;;;20.65;76.78
66430;BME280;53242;51.694;10.006;2023-09-12T01:39:37;99199.78;;;20.60;77.22
66430;BME280;53242;51.694;10.006;2023-09-12T01:42:00;99197.34;;;20.53;77.70
66430;BME280;53242;51.694;10.006;2023-09-12T01:44:24;99205.94;;;20.55;77.66
66430;BME280;53242;51.694;10.006;2023-09-12T01:46:48;99201.63;;;20.38;78.26
66430;BME280;53242;51.694;10.006;2023-09-12T01:49:13;99197.63;;;20.41;78.32
66430;BME280;53242;51.694;10.006;2023-09-12T01:51:37;99190.13;;;20.38;78.22
66430;BME280;53242;51.694;10.006;2023-09-12T01:54:00;99183.94;;;20.43;77.95
66430;BME280;53242;51.694;10.006;2023-09-12T01:56:23;99191.47;;;20.41;77.84
66430;BME280;53242;51.694;10.006;2023-09-12T01:58:46;99194.66;;;20.48;76.95
66430;BME280;53242;51.694;10.006;2023-09-12T02:01:08;99190.41;;;20.42;77.35
66430;BME280;53242;51.694;10.006;2023-09-12T02:03:31;99198.41;;;20.26;78.30
66430;BME280;53242;51.694;10.006;2023-09-12T02:05:54;99198.16;;;20.33;78.17
66430;BME280;53242;51.694;10.006;2023-09-12T02:08:16;99199.22;;;20.37;77.79
66430;BME280;53242;51.694;10.006;2023-09-12T02:10:39;99195.19;;;20.14;78.53
66430;BME280;53242;51.694;10.006;2023-09-12T02:13:01;99188.78;;;20.25;78.06
66430;BME280;53242;51.694;10.006;2023-09-12T02:15:24;99191.72;;;20.29;77.86
66430;BME280;53242;51.694;10.006;2023-09-12T02:17:46;99195.47;;;20.33;77.69
66430;BME280;53242;51.694;10.006;2023-09-12T02:20:09;99196.28;;;20.33;77.89
66430;BME280;53242;51.694;10.006;2023-09-12T02:22:32;99198.94;;;20.23;78.28
66430;BME280;53242;51.694;10.006;2023-09-12T02:24:54;99193.56;;;20.23;78.11
66430;BME280;53242;51.694;10.006;2023-09-12T02:27:17;99191.97;;;20.27;78.03
66430;BME280;53242;51.694;10.006;2023-09-12T02:29:39;99195.47;;;20.38;77.57
66430;BME280;53242;51.694;10.006;2023-09-12T02:32:02;99199.50;;;20.41;77.46
66430;BME280;53242;51.694;10.006;2023-09-12T02:34:25;99198.97;;;20.44;77.09
66430;BME280;53242;51.694;10.006;2023-09-12T02:36:47;99199.22;;;20.32;77.30
66430;BME280;53242;51.694;10.006;2023-09-12T02:39:10;99198.66;;;20.25;77.84
66430;BME280;53242;51.694;10.006;2023-09-12T02:41:32;99203.22;;;20.24;77.76
66430;BME280;53242;51.694;10.006;2023-09-12T02:43:55;99202.66;;;20.12;78.29
66430;BME280;53242;51.694;10.006;2023-09-12T02:46:17;99207.78;;;20.08;78.71
66430;BME280;53242;51.694;10.006;2023-09-12T02:48:40;99200.47;;;19.93;79.38
66430;BME280;53242;51.694;10.006;2023-09-12T02:51:03;99187.00;;;19.78;80.00
66430;BME280;53242;51.694;10.006;2023-09-12T02:53:25;99192.16;;;19.84;79.97
66430;BME280;53242;51.694;10.006;2023-09-12T02:55:47;99194.06;;;19.89;79.56
66430;BME280;53242;51.694;10.006;2023-09-12T02:58:10;99198.06;;;19.86;79.96
66430;BME280;53242;51.694;10.006;2023-09-12T03:00:32;99194.38;;;19.50;81.24
66430;BME280;53242;51.694;10.006;2023-09-12T03:02:55;99198.50;;;19.73;80.82
66430;BME280;53242;51.694;10.006;2023-09-12T03:05:18;99198.25;;;19.75;80.60
66430;BME280;53242;51.694;10.006;2023-09-12T03:07:40;99193.50;;;19.87;79.98
66430;BME280;53242;51.694;10.006;2023-09-12T03:10:03;99204.47;;;19.85;79.69
66430;BME280;53242;51.694;10.006;2023-09-12T03:12:26;99214.41;;;19.85;79.76
66430;BME280;53242;51.694;10.006;2023-09-12T03:14:48;99223.41;;;19.74;80.24
66430;BME280;53242;51.694;10.006;2023-09-12T03:17:11;99220.22;;;19.77;80.07
66430;BME280;53242;51.694;10.006;2023-09-12T03:19:33;99228.47;;;19.65;80.52
66430;BME280;53242;51.694;10.006;2023-09-12T03:21:56;99227.44;;;19.71;80.13
66430;BME280;53242;51.694;10.006;2023-09-12T03:24:18;99236.22;;;19.66;80.59
66430;BME280;53242;51.694;10.006;2023-09-12T03:26:41;99251.38;;;19.40;81.29
66430;BME280;53242;51.694;10.006;2023-09-12T03:29:04;99259.06;;;19.31;82.03
66430;BME280;53242;51.694;10.006;2023-09-12T03:31:27;99262.88;;;19.03;83.92
66430;BME280;53242;51.694;10.006;2023-09-12T03:33:51;99251.47;;;19.13;84.89
66430;BME280;53242;51.694;10.006;2023-09-12T03:36:15;99247.75;;;18.86;84.86
66430;BME280;53242;51.694;10.006;2023-09-12T03:38:38;99238.66;;;18.87;85.46
66430;BME280;53242;51.694;10.006;2023-09-12T03:41:01;99234.09;;;18.88;85.30
66430;BME280;53242;51.694;10.006;2023-09-12T03:43:24;99238.41;;;18.89;85.59
66430;BME280;53242;51.694;10.006;2023-09-12T03:45:47;99232.69;;;19.08;84.79
66430;BME280;53242;51.694;10.006;2023-09-12T03:48:09;99228.03;;;18.93;85.07
66430;BME280;53242;51.694;10.006;2023-09-12T03:50:32;99220.63;;;19.00;85.23
66430;BME280;53242;51.694;10.006;2023-09-12T03:52:54;99211.19;;;18.92;85.52
66430;BME280;53242;51.694;10.006;2023-09-12T03:55:17;99209.38;;;19.03;85.32
66430;BME280;53242;51.694;10.006;2023-09-12T03:57:39;99216.13;;;19.11;85.20
66430;BME280;53242;51.694;10.006;2023-09-12T04:00:02;99224.28;;;19.31;83.89
66430;BME280;53242;51.694;10.006;2023-09-12T04:02:36;99221.91;;;19.40;83.25
66430;BME280;53242;51.694;10.006;2023-09-12T04:04:58;99229.06;;;19.29;83.25
66430;BME280;53242;51.694;10.006;2023-09-12T04:07:21;99229.91;;;19.30;83.76
66430;BME280;53242;51.694;10.006;2023-09-12T04:09:44;99223.97;;;19.28;83.40
66430;BME280;53242;51.694;10.006;2023-09-12T04:12:06;99218.97;;;19.36;83.10
66430;BME280;53242;51.694;10.006;2023-09-12T04:14:31;99210.34;;;19.29;83.15
66430;BME280;53242;51.694;10.006;2023-09-12T04:16:53;99210.38;;;19.34;83.31
66430;BME280;53242;51.694;10.006;2023-09-12T04:19:16;99211.72;;;19.37;83.02
66430;BME280;53242;51.694;10.006;2023-09-12T04:21:38;99227.94;;;19.20;84.09
66430;BME280;53242;51.694;10.006;2023-09-12T04:24:01;99238.66;;;19.20;83.86
66430;BME280;53242;51.694;10.006;2023-09-12T04:26:23;99262.03;;;18.97;84.87
66430;BME280;53242;51.694;10.006;2023-09-12T04:28:49;99265.56;;;19.03;84.90
66430;BME280;53242;51.694;10.006;2023-09-12T04:31:12;99269.06;;;19.09;83.99
66430;BME280;53242;51.694;10.006;2023-09-12T04:33:35;99279.19;;;19.01;84.30
66430;BME280;53242;51.694;10.006;2023-09-12T04:36:00;99283.44;;;18.97;84.71
66430;BME280;53242;51.694;10.006;2023-09-12T04:38:22;99279.72;;;19.03;84.57
66430;BME280;53242;51.694;10.006;2023-09-12T04:40:56;99275.22;;;19.09;84.75
66430;BME280;53242;51.694;10.006;2023-09-12T04:43:20;99273.28;;;18.99;85.38
66430;BME280;53242;51.694;10.006;2023-09-12T04:45:42;99276.22;;;18.98;85.70
66430;BME280;53242;51.694;10.006;2023-09-12T04:48:05;99284.28;;;19.03;85.52
66430;BME280;53242;51.694;10.006;2023-09-12T04:50:27;99281.34;;;19.04;85.48
66430;BME280;53242;51.694;10.006;2023-09-12T04:52:49;99280.19;;;18.95;86.80
66430;BME280;53242;51.694;10.006;2023-09-12T04:55:12;99271.75;;;18.81;88.35
66430;BME280;53242;51.694;10.006;2023-09-12T04:57:34;99267.66;;;19.01;87.47
66430;BME280;53242;51.694;10.006;2023-09-12T04:59:57;99265.94;;;19.17;87.24
66430;BME280;53242;51.694;10.006;2023-09-12T05:02:22;99264.88;;;19.18;86.62
66430;BME280;53242;51.694;10.006;2023-09-12T05:04:44;99261.94;;;19.19;86.52
66430;BME280;53242;51.694;10.006;2023-09-12T05:07:07;99271.06;;;19.23;87.51
66430;BME280;53242;51.694;10.006;2023-09-12T05:09:29;99259.13;;;19.42;86.46
66430;BME280;53242;51.694;10.006;2023-09-12T05:11:52;99263.91;;;19.39;86.36
66430;BME280;53242;51.694;10.006;2023-09-12T05:14:14;99262.13;;;19.50;85.95
66430;BME280;53242;51.694;10.006;2023-09-12T05:16:37;99262.63;;;19.47;86.25
66430;BME280;53242;51.694;10.006;2023-09-12T05:18:59;99264.56;;;19.57;85.57
66430;BME280;53242;51.694;10.006;2023-09-12T05:21:22;99269.97;;;19.67;85.29
66430;BME280;53242;51.694;10.006;2023-09-12T05:23:44;99268.63;;;19.65;85.03
66430;BME280;53242;51.694;10.006;2023-09-12T05:26:07;99260.31;;;19.66;85.17
66430;BME280;53242;51.694;10.006;2023-09-12T05:28:29;99268.22;;;19.88;84.38
66430;BME280;53242;51.694;10.006;2023-09-12T05:30:52;99267.34;;;19.78;84.55
66430;BME280;53242;51.694;10.006;2023-09-12T05:33:15;99273.34;;;19.95;83.94
66430;BME280;53242;51.694;10.006;2023-09-12T05:35:37;99274.16;;;19.96;84.09
66430;BME280;53242;51.694;10.006;2023-09-12T05:38:00;99280.13;;;20.13;83.75
66430;BME280;53242;51.694;10.006;2023-09-12T05:40:22;99278.50;;;20.17;83.50
66430;BME280;53242;51.694;10.006;2023-09-12T05:42:45;99283.59;;;20.14;83.62
66430;BME280;53242;51.694;10.006;2023-09-12T05:45:08;99285.22;;;20.20;83.78
66430;BME280;53242;51.694;10.006;2023-09-12T05:47:30;99271.81;;;20.20;83.86
66430;BME280;53242;51.694;10.006;2023-09-12T05:49:53;99281.47;;;20.21;83.98
66430;BME280;53242;51.694;10.006;2023-09-12T05:52:16;99292.22;;;20.31;83.69
66430;BME280;53242;51.694;10.006;2023-09-12T05:54:42;99288.75;;;20.41;83.56
66430;BME280;53242;51.694;10.006;2023-09-12T05:57:04;99300.03;;;20.48;83.08
66430;BME280;53242;51.694;10.006;2023-09-12T05:59:27;99294.94;;;20.47;82.97
66430;BME280;53242;51.694;10.006;2023-09-12T06:01:49;99303.00;;;20.47;83.16
66430;BME280;53242;51.694;10.006;2023-09-12T06:04:12;99319.03;;;20.31;84.60
66430;BME280;53242;51.694;10.006;2023-09-12T06:06:34;99315.28;;;20.37;84.33
66430;BME280;53242;51.694;10.006;2023-09-12T06:08:57;99315.84;;;20.45;83.93
66430;BME280;53242;51.694;10.006;2023-09-12T06:11:20;99307.28;;;20.53;82.97
66430;BME280;53242;51.694;10.006;2023-09-12T06:13:42;99304.09;;;20.61;82.33
66430;BME280;53242;51.694;10.006;2023-09-12T06:16:05;99304.84;;;20.41;83.19
66430;BME280;53242;51.694;10.006;2023-09-12T06:18:28;99304.09;;;20.66;82.00
66430;BME280;53242;51.694;10.006;2023-09-12T06:20:52;99298.97;;;20.44;82.75
66430;BME280;53242;51.694;10.006;2023-09-12T06:23:14;99303.81;;;20.68;81.89
66430;BME280;53242;51.694;10.006;2023-09-12T06:25:37;99301.69;;;20.65;81.98
66430;BME280;53242;51.694;10.006;2023-09-12T06:27:59;99309.22;;;20.73;81.67
66430;BME280;53242;51.694;10.006;2023-09-12T06:30:22;99311.06;;;20.67;81.64
66430;BME280;53242;51.694;10.006;2023-09-12T06:32:44;99320.41;;;20.44;82.81
66430;BME280;53242;51.694;10.006;2023-09-12T06:35:07;99328.19;;;20.56;82.65
66430;BME280;53242;51.694;10.006;2023-09-12T06:37:30;99323.94;;;20.65;82.29
66430;BME280;53242;51.694;10.006;2023-09-12T06:39:52;99321.25;;;20.65;82.18
66430;BME280;53242;51.694;10.006;2023-09-12T06:42:14;99319.84;;;20.37;83.88
66430;BME280;53242;51.694;10.006;2023-09-12T06:44:37;99320.91;;;20.41;83.60
66430;BME280;53242;51.694;10.006;2023-09-12T06:46:59;99309.44;;;20.51;83.33
66430;BME280;53242;51.694;10.006;2023-09-12T06:49:22;99311.28;;;20.56;83.26
66430;BME280;53242;51.694;10.006;2023-09-12T06:51:44;99318.03;;;20.68;82.99
66430;BME280;53242;51.694;10.006;2023-09-12T06:54:06;99318.06;;;20.79;82.38
66430;BME280;53242;51.694;10.006;2023-09-12T06:56:29;99318.63;;;20.86;82.37
66430;BME280;53242;51.694;10.006;2023-09-12T06:58:51;99311.94;;;21.09;81.30
66430;BME280;53242;51.694;10.006;2023-09-12T07:01:15;99311.13;;;21.14;81.59
66430;BME280;53242;51.694;10.006;2023-09-12T07:03:37;99298.22;;;21.26;81.52
66430;BME280;53242;51.694;10.006;2023-09-12T07:06:00;99299.84;;;21.17;81.96
66430;BME280;53242;51.694;10.006;2023-09-12T07:08:23;99295.53;;;21.26;81.89
66430;BME280;53242;51.694;10.006;2023-09-12T07:10:45;99293.38;;;21.39;81.64
66430;BME280;53242;51.694;10.006;2023-09-12T07:13:08;99294.44;;;21.43;80.98
66430;BME280;53242;51.694;10.006;2023-09-12T07:15:30;99293.13;;;21.30;81.47
66430;BME280;53242;51.694;10.006;2023-09-12T07:17:53;99279.97;;;21.39;81.06
66430;BME280;53242;51.694;10.006;2023-09-12T07:20:15;99283.69;;;21.68;80.21
66430;BME280;53242;51.694;10.006;2023-09-12T07:22:40;99285.00;;;21.71;79.57
66430;BME280;53242;51.694;10.006;2023-09-12T07:25:02;99272.88;;;21.89;78.98
66430;BME280;53242;51.694;10.006;2023-09-12T07:27:25;99255.41;;;21.87;77.74
66430;BME280;53242;51.694;10.006;2023-09-12T07:29:47;99249.63;;;22.14;75.23
66430;BME280;53242;51.694;10.006;2023-09-12T07:32:09;99239.56;;;22.40;73.95
66430;BME280;53242;51.694;10.006;2023-09-12T07:34:32;99220.16;;;22.48;73.12
66430;BME280;53242;51.694;10.006;2023-09-12T07:36:55;99215.09;;;22.42;72.56
66430;BME280;53242;51.694;10.006;2023-09-12T07:39:17;99212.97;;;22.39;72.07
66430;BME280;53242;51.694;10.006;2023-09-12T07:41:40;99227.94;;;22.50;71.23
66430;BME280;53242;51.694;10.006;2023-09-12T07:44:02;99245.13;;;22.54;71.55
66430;BME280;53242;51.694;10.006;2023-09-12T07:46:26;99258.44;;;22.30;71.80
66430;BME280;53242;51.694;10.006;2023-09-12T07:48:49;99243.59;;;22.43;71.64
66430;BME280;53242;51.694;10.006;2023-09-12T07:51:15;99237.19;;;22.39;71.35
66430;BME280;53242;51.694;10.006;2023-09-12T07:53:40;99243.25;;;22.55;70.81
66430;BME280;53242;51.694;10.006;2023-09-12T07:56:03;99245.09;;;22.59;70.89
66430;BME280;53242;51.694;10.006;2023-09-12T07:58:25;99255.25;;;22.67;70.85
66430;BME280;53242;51.694;10.006;2023-09-12T08:00:47;99249.94;;;22.57;70.43
66430;BME280;53242;51.694;10.006;2023-09-12T08:03:10;99252.09;;;22.55;69.00
66430;BME280;53242;51.694;10.006;2023-09-12T08:05:32;99253.31;;;22.73;68.36
66430;BME280;53242;51.694;10.006;2023-09-12T08:07:55;99259.88;;;22.91;67.25
66430;BME280;53242;51.694;10.006;2023-09-12T08:10:17;99265.19;;;23.02;67.83
66430;BME280;53242;51.694;10.006;2023-09-12T08:12:39;99257.38;;;23.35;67.04
66430;BME280;53242;51.694;10.006;2023-09-12T08:15:04;99270.50;;;23.41;65.92
66430;BME280;53242;51.694;10.006;2023-09-12T08:17:26;99272.47;;;23.60;65.67
66430;BME280;53242;51.694;10.006;2023-09-12T08:19:49;99273.16;;;23.71;64.63
66430;BME280;53242;51.694;10.006;2023-09-12T08:22:12;99273.56;;;23.83;64.03
66430;BME280;53242;51.694;10.006;2023-09-12T08:24:35;99274.47;;;23.97;63.05
66430;BME280;53242;51.694;10.006;2023-09-12T08:26:58;99262.53;;;23.79;62.78
66430;BME280;53242;51.694;10.006;2023-09-12T08:29:20;99273.06;;;24.24;62.07
66430;BME280;53242;51.694;10.006;2023-09-12T08:31:43;99264.81;;;24.35;60.51
66430;BME280;53242;51.694;10.006;2023-09-12T08:34:07;99264.53;;;24.36;60.87
66430;BME280;53242;51.694;10.006;2023-09-12T08:36:29;99266.22;;;24.51;60.08
66430;BME280;53242;51.694;10.006;2023-09-12T08:38:52;99257.91;;;24.67;60.32
66430;BME280;53242;51.694;10.006;2023-09-12T08:41:14;99263.72;;;24.74;59.71
66430;BME280;53242;51.694;10.006;2023-09-12T08:43:37;99246.34;;;24.80;58.26
66430;BME280;53242;51.694;10.006;2023-09-12T08:45:59;99252.22;;;25.15;57.97
66430;BME280;53242;51.694;10.006;2023-09-12T08:48:22;99254.63;;;25.17;56.67
66430;BME280;53242;51.694;10.006;2023-09-12T08:50:47;99241.69;;;25.00;56.16
66430;BME280;53242;51.694;10.006;2023-09-12T08:53:10;99247.53;;;25.07;56.50
66430;BME280;53242;51.694;10.006;2023-09-12T08:55:33;99252.22;;;25.15;56.02
66430;BME280;53242;51.694;10.006;2023-09-12T08:57:58;99256.44;;;25.21;55.96
66430;BME280;53242;51.694;10.006;2023-09-12T09:00:22;99258.09;;;25.50;56.34
66430;BME280;53242;51.694;10.006;2023-09-12T09:02:45;99259.44;;;25.20;56.17
66430;BME280;53242;51.694;10.006;2023-09-12T09:05:09;99268.84;;;25.22;56.07
66430;BME280;53242;51.694;10.006;2023-09-12T09:07:33;99266.13;;;25.08;56.47
66430;BME280;53242;51.694;10.006;2023-09-12T09:09:56;99276.63;;;25.10;56.31
66430;BME280;53242;51.694;10.006;2023-09-12T09:12:19;99276.75;;;25.19;56.43
66430;BME280;53242;51.694;10.006;2023-09-12T09:14:42;99273.03;;;25.15;56.30
66430;BME280;53242;51.694;10.006;2023-09-12T09:17:04;99272.75;;;25.30;56.20
66430;BME280;53242;51.694;10.006;2023-09-12T09:19:41;99283.06;;;25.28;54.79
66430;BME280;53242;51.694;10.006;2023-09-12T09:22:06;99292.22;;;25.46;55.75
66430;BME280;53242;51.694;10.006;2023-09-12T09:24:29;99300.94;;;25.43;56.41
66430;BME280;53242;51.694;10.006;2023-09-12T09:26:51;99303.63;;;25.43;56.60
66430;BME280;53242;51.694;10.006;2023-09-12T09:29:21;99303.88;;;25.27;56.38
66430;BME280;53242;51.694;10.006;2023-09-12T09:31:45;99309.28;;;25.27;55.98
66430;BME280;53242;51.694;10.006;2023-09-12T09:34:15;99300.25;;;25.32;54.30
66430;BME280;53242;51.694;10.006;2023-09-12T09:36:41;99301.03;;;25.19;54.70
66430;BME280;53242;51.694;10.006;2023-09-12T09:39:04;99308.63;;;25.50;54.77
66430;BME280;53242;51.694;10.006;2023-09-12T09:41:27;99311.94;;;25.60;54.89
66430;BME280;53242;51.694;10.006;2023-09-12T09:43:51;99304.56;;;25.66;55.48
66430;BME280;53242;51.694;10.006;2023-09-12T09:46:17;99310.06;;;25.61;54.66
66430;BME280;53242;51.694;10.006;2023-09-12T09:48:48;99315.25;;;25.71;54.43
66430;BME280;53242;51.694;10.006;2023-09-12T09:51:13;99314.97;;;25.73;55.61
66430;BME280;53242;51.694;10.006;2023-09-12T09:53:35;99319.13;;;25.51;55.95
66430;BME280;53242;51.694;10.006;2023-09-12T09:56:10;99323.16;;;25.21;56.92
66430;BME280;53242;51.694;10.006;2023-09-12T09:58:33;99318.94;;;25.15;58.13
66430;BME280;53242;51.694;10.006;2023-09-12T10:00:55;99317.56;;;25.17;58.04
66430;BME280;53242;51.694;10.006;2023-09-12T10:03:18;99317.22;;;25.38;57.58
66430;BME280;53242;51.694;10.006;2023-09-12T10:05:43;99312.63;;;25.38;57.68
66430;BME280;53242;51.694;10.006;2023-09-12T10:08:07;99319.44;;;25.50;57.29
66430;BME280;53242;51.694;10.006;2023-09-12T10:10:33;99310.63;;;25.44;57.63
66430;BME280;53242;51.694;10.006;2023-09-12T10:12:57;99315.91;;;25.02;59.00
66430;BME280;53242;51.694;10.006;2023-09-12T10:15:20;99325.38;;;25.00;59.38
66430;BME280;53242;51.694;10.006;2023-09-12T10:17:46;99328.38;;;24.98;59.42
66430;BME280;53242;51.694;10.006;2023-09-12T10:20:15;99322.53;;;24.77;60.18
66430;BME280;53242;51.694;10.006;2023-09-12T10:22:52;99317.66;;;24.93;60.52
66430;BME280;53242;51.694;10.006;2023-09-12T10:25:18;99307.81;;;24.83;61.19
66430;BME280;53242;51.694;10.006;2023-09-12T10:27:41;99302.88;;;24.90;60.71
66430;BME280;53242;51.694;10.006;2023-09-12T10:30:04;99303.69;;;25.05;60.64
66430;BME280;53242;51.694;10.006;2023-09-12T10:32:28;99300.50;;;25.36;59.84
66430;BME280;53242;51.694;10.006;2023-09-12T10:34:51;99298.63;;;25.36;60.60
66430;BME280;53242;51.694;10.006;2023-09-12T10:37:15;99297.56;;;25.32;60.64
66430;BME280;53242;51.694;10.006;2023-09-12T10:39:38;99301.31;;;25.36;61.71
66430;BME280;53242;51.694;10.006;2023-09-12T10:42:04;99301.38;;;25.31;61.73
66430;BME280;53242;51.694;10.006;2023-09-12T10:44:28;99304.72;;;25.42;61.88
66430;BME280;53242;51.694;10.006;2023-09-12T10:46:51;99297.56;;;25.32;61.91
66430;BME280;53242;51.694;10.006;2023-09-12T10:49:17;99310.63;;;25.58;61.39
66430;BME280;53242;51.694;10.006;2023-09-12T10:51:41;99295.66;;;25.19;62.31
66430;BME280;53242;51.694;10.006;2023-09-12T10:54:04;99311.88;;;25.33;62.08
66430;BME280;53242;51.694;10.006;2023-09-12T10:56:27;99304.84;;;25.18;62.20
66430;BME280;53242;51.694;10.006;2023-09-12T11:01:29;99317.22;;;25.05;61.50
66430;BME280;53242;51.694;10.006;2023-09-12T11:03:52;99318.84;;;25.20;61.02
66430;BME280;53242;51.694;10.006;2023-09-12T11:06:41;99328.75;;;25.24;60.07
66430;BME280;53242;51.694;10.006;2023-09-12T11:11:35;99335.28;;;25.23;60.14
66430;BME280;53242;51.694;10.006;2023-09-12T11:14:05;99333.13;;;25.39;59.42
66430;BME280;53242;51.694;10.006;2023-09-12T11:16:28;99329.25;;;25.46;59.58
66430;BME280;53242;51.694;10.006;2023-09-12T11:19:27;99334.88;;;25.77;59.11
66430;BME280;53242;51.694;10.006;2023-09-12T11:21:51;99326.19;;;25.80;58.45
66430;BME280;53242;51.694;10.006;2023-09-12T11:24:13;99322.16;;;25.31;58.31
66430;BME280;53242;51.694;10.006;2023-09-12T11:29:16;99328.97;;;26.03;56.61
66430;BME280;53242;51.694;10.006;2023-09-12T11:31:39;99324.56;;;25.79;55.94
66430;BME280;53242;51.694;10.006;2023-09-12T11:34:04;99338.41;;;25.77;56.16
66430;BME280;53242;51.694;10.006;2023-09-12T11:36:26;99330.56;;;25.90;55.72
66430;BME280;53242;51.694;10.006;2023-09-12T11:38:49;99335.59;;;25.69;56.05
66430;BME280;53242;51.694;10.006;2023-09-12T11:41:12;99333.97;;;25.82;55.70
66430;BME280;53242;51.694;10.006;2023-09-12T11:43:37;99332.59;;;25.98;54.70
66430;BME280;53242;51.694;10.006;2023-09-12T11:46:01;99335.69;;;26.05;53.60
66430;BME280;53242;51.694;10.006;2023-09-12T11:48:23;99345.41;;;26.06;53.07
66430;BME280;53242;51.694;10.006;2023-09-12T11:50:53;99344.22;;;26.26;52.75
66430;BME280;53242;51.694;10.006;2023-09-12T11:53:18;99340.00;;;26.34;52.81
66430;BME280;53242;51.694;10.006;2023-09-12T11:55:44;99325.34;;;26.35;53.02
66430;BME280;53242;51.694;10.006;2023-09-12T11:58:07;99320.97;;;26.25;53.56
66430;BME280;53242;51.694;10.006;2023-09-12T12:00:29;99330.47;;;26.37;53.67
66430;BME280;53242;51.694;10.006;2023-09-12T12:02:53;99315.03;;;26.37;54.42
66430;BME280;53242;51.694;10.006;2023-09-12T12:05:16;99325.66;;;26.34;55.09
66430;BME280;53242;51.694;10.006;2023-09-12T12:07:38;99316.13;;;26.22;55.79
66430;BME280;53242;51.694;10.006;2023-09-12T12:10:01;99316.34;;;26.12;56.39
66430;BME280;53242;51.694;10.006;2023-09-12T12:12:26;99320.69;;;25.85;56.62
66430;BME280;53242;51.694;10.006;2023-09-12T12:14:48;99310.13;;;25.84;57.06
66430;BME280;53242;51.694;10.006;2023-09-12T12:17:12;99300.53;;;25.91;56.57
66430;BME280;53242;51.694;10.006;2023-09-12T12:19:34;99304.16;;;26.01;56.57
66430;BME280;53242;51.694;10.006;2023-09-12T12:21:58;99305.25;;;26.14;55.64
66430;BME280;53242;51.694;10.006;2023-09-12T12:24:21;99296.34;;;25.85;55.85
66430;BME280;53242;51.694;10.006;2023-09-12T12:26:43;99297.16;;;26.14;55.72
66430;BME280;53242;51.694;10.006;2023-09-12T12:29:06;99311.72;;;26.40;54.61
66430;BME280;53242;51.694;10.006;2023-09-12T12:31:28;99304.31;;;26.32;53.04
66430;BME280;53242;51.694;10.006;2023-09-12T12:33:54;99298.91;;;26.18;51.15
66430;BME280;53242;51.694;10.006;2023-09-12T12:36:17;99292.09;;;26.35;52.82
66430;BME280;53242;51.694;10.006;2023-09-12T12:38:40;99289.19;;;26.17;54.62
66430;BME280;53242;51.694;10.006;2023-09-12T12:41:05;99282.94;;;25.80;54.96
66430;BME280;53242;51.694;10.006;2023-09-12T12:43:27;99280.81;;;25.91;54.54